This is the latest recevied weather packets stored in our database for station/object DB5WY-13. If no packets are shown the sender has not sent any weather packets the latest 10 day(s).
| Time | Temp. | Humidity | Pressure | Rain* | Wind** | Luminosity | Snow |
|---|---|---|---|---|---|---|---|
| 1777448425 | 12.22° C | 34% | 1025.4 hPa | 0 mm | - | - | - |
| 1777447825 | 11.67° C | 35% | 1025.3 hPa | 0 mm | - | - | - |
| 1777447225 | 11.67° C | 35% | 1025.4 hPa | 0 mm | - | - | - |
| 1777446625 | 11.67° C | 37% | 1025.2 hPa | 0 mm | - | - | - |
| 1777446025 | 11.67° C | 37% | 1025.2 hPa | 0 mm | - | - | - |
| 1777445425 | 11.11° C | 36% | 1025.2 hPa | 0 mm | - | - | - |
| 1777444825 | 10.56° C | 37% | 1025 hPa | 0 mm | - | - | - |
| 1777444225 | 10.56° C | 37% | 1025 hPa | 0 mm | - | - | - |
| 1777443625 | 10.56° C | 37% | 1025 hPa | 0 mm | - | - | - |
| 1777443025 | 10° C | 37% | 1024.9 hPa | 0 mm | - | - | - |
| 1777442425 | 10° C | 38% | 1024.7 hPa | 0 mm | - | - | - |
| 1777441825 | 10° C | 38% | 1024.8 hPa | 0 mm | - | - | - |
| 1777441225 | 9.44° C | 39% | 1024.7 hPa | 0 mm | - | - | - |
| 1777440625 | 8.89° C | 39% | 1024.5 hPa | 0 mm | - | - | - |
| 1777440025 | 8.33° C | 40% | 1024.5 hPa | 0 mm | - | - | - |
| 1777439425 | 7.78° C | 41% | 1024.3 hPa | 0 mm | - | - | - |
| 1777438825 | 7.22° C | 43% | 1024.2 hPa | 0 mm | - | - | - |
| 1777434626 | 5.56° C | 46% | 1023.8 hPa | 0 mm | - | - | - |
| 1777434026 | 5.56° C | 46% | 1023.8 hPa | 0 mm | - | - | - |
| 1777432226 | 5.56° C | 45% | 1023.7 hPa | 0 mm | - | - | - |
| 1777414827 | 7.78° C | 48% | 1024 hPa | 0 mm | - | - | - |
| 1777414227 | 7.78° C | 48% | 1023.8 hPa | 0 mm | - | - | - |
| 1777413027 | 7.78° C | 49% | 1023.9 hPa | 0 mm | - | - | - |
| 1777411827 | 8.33° C | 50% | 1023.8 hPa | 0 mm | - | - | - |
| 1777411227 | 8.33° C | 50% | 1023.6 hPa | 0 mm | - | - | - |
* Rain latest hour (hover to see other rain measurements)
** Current wind speed in m/s (hover to see current wind gust speed)